createdAt,value
2022-09-20T00:00:11.918Z,1277.19
2022-09-20T00:01:11.921Z,1277.19
2022-09-20T00:02:11.770Z,1277.19
2022-09-20T00:03:11.757Z,1277.19
2022-09-20T00:04:11.838Z,1277.19
2022-09-20T00:05:11.698Z,1277.19
2022-09-20T00:06:11.787Z,1277.19
2022-09-20T00:07:11.776Z,1277.19
2022-09-20T00:08:11.769Z,1277.19
2022-09-20T00:09:11.657Z,1277.19
2022-09-20T00:10:11.661Z,1277.19
2022-09-20T00:11:11.682Z,1277.19
2022-09-20T00:12:12.065Z,1277.19
2022-09-20T00:13:11.706Z,1277.19
2022-09-20T00:14:11.774Z,1277.19
2022-09-20T00:15:12.029Z,1277.19
2022-09-20T00:16:11.735Z,1277.19
2022-09-20T00:17:11.841Z,1277.19
2022-09-20T00:18:11.689Z,1277.19
2022-09-20T00:19:12.845Z,1277.19
2022-09-20T00:20:13.353Z,1277.19
2022-09-20T00:21:11.753Z,1277.19
2022-09-20T00:22:11.842Z,1277.19
2022-09-20T00:23:12.454Z,1277.19
2022-09-20T00:24:11.726Z,1277.19
2022-09-20T00:25:11.638Z,1277.19
2022-09-20T00:26:11.656Z,1277.19
2022-09-20T00:27:11.729Z,1277.19
2022-09-20T00:28:11.759Z,1277.19
2022-09-20T00:29:12.101Z,1277.19
2022-09-20T00:30:12.464Z,1277.19
2022-09-20T00:31:11.722Z,1277.19
2022-09-20T00:32:11.572Z,1277.19
2022-09-20T00:33:11.585Z,1277.19
2022-09-20T00:34:11.510Z,1277.19
2022-09-20T00:35:11.596Z,1277.19
2022-09-20T00:36:11.528Z,1277.19
2022-09-20T00:37:11.490Z,1277.19
2022-09-20T00:38:11.745Z,1277.19
2022-09-20T00:39:11.523Z,1277.19
2022-09-20T00:40:11.453Z,1277.19
2022-09-20T00:41:11.413Z,1277.19
2022-09-20T00:42:12.895Z,1277.19
2022-09-20T00:43:11.336Z,1277.19
2022-09-20T00:44:11.393Z,1277.19
2022-09-20T00:45:11.411Z,1277.19
2022-09-20T00:46:11.390Z,1277.19
2022-09-20T00:47:11.365Z,1277.19
2022-09-20T00:48:11.346Z,1277.19
2022-09-20T00:49:11.198Z,1277.19
2022-09-20T00:50:11.373Z,1277.19
2022-09-20T00:51:11.198Z,1277.19
2022-09-20T00:52:11.369Z,1277.19
2022-09-20T00:53:11.385Z,1277.19
2022-09-20T00:54:11.392Z,1277.19
2022-09-20T00:55:11.176Z,1277.19
2022-09-20T00:56:11.239Z,1277.19
2022-09-20T00:57:11.240Z,1277.19
2022-09-20T00:58:11.219Z,1277.19
2022-09-20T00:59:11.201Z,1277.19
2022-09-20T01:00:11.175Z,1277.19
2022-09-20T01:01:11.207Z,1277.19
2022-09-20T01:02:11.136Z,1277.19
2022-09-20T01:03:11.162Z,1277.19
2022-09-20T01:04:11.196Z,1277.19
2022-09-20T01:05:11.095Z,1277.19
2022-09-20T01:06:11.043Z,1277.19
2022-09-20T01:07:11.244Z,1277.19
2022-09-20T01:08:11.099Z,1277.19
2022-09-20T01:10:21.132Z,951.23
2022-09-20T01:11:21.058Z,951.23
2022-09-20T01:12:21.061Z,951.25
2022-09-20T01:13:21.058Z,951.27
2022-09-20T01:14:21.042Z,951.26
2022-09-20T01:15:21.061Z,951.23
2022-09-20T01:16:21.077Z,951.21
2022-09-20T01:17:20.992Z,951.19
2022-09-20T01:18:21.031Z,951.21
2022-09-20T01:19:20.971Z,951.16
2022-09-20T01:20:21.000Z,951.26
2022-09-20T01:21:20.949Z,951.23
2022-09-20T01:22:20.959Z,951.22
2022-09-20T01:23:20.931Z,951.21
2022-09-20T01:24:20.931Z,951.20
2022-09-20T01:25:20.919Z,951.20
2022-09-20T01:26:20.932Z,951.20
2022-09-20T01:27:20.907Z,951.19
2022-09-20T01:28:20.866Z,951.18
2022-09-20T01:29:20.878Z,951.18
2022-09-20T01:30:20.848Z,951.15
2022-09-20T01:31:20.887Z,951.15
2022-09-20T01:32:20.982Z,951.21
2022-09-20T01:33:20.849Z,951.16
2022-09-20T01:34:20.806Z,951.21
2022-09-20T01:35:20.810Z,951.13
2022-09-20T01:36:20.779Z,951.19
2022-09-20T01:37:20.766Z,951.17
2022-09-20T01:38:20.768Z,951.18
2022-09-20T01:39:20.751Z,951.17
2022-09-20T01:40:20.791Z,951.21
2022-09-20T01:41:20.723Z,951.20
2022-09-20T01:42:20.752Z,951.14
2022-09-20T01:43:20.696Z,951.19
2022-09-20T01:44:20.731Z,951.24
2022-09-20T01:45:20.695Z,951.19
2022-09-20T01:46:20.709Z,951.15
2022-09-20T01:47:20.653Z,951.17
2022-09-20T01:48:20.655Z,951.13
2022-09-20T01:49:20.653Z,951.16
2022-09-20T01:50:20.631Z,951.14
2022-09-20T01:51:20.636Z,951.17
2022-09-20T01:52:20.598Z,951.18
2022-09-20T01:53:20.585Z,951.20
2022-09-20T01:54:20.594Z,951.17
2022-09-20T01:55:20.587Z,951.24
2022-09-20T01:56:20.570Z,951.20
2022-09-20T01:57:25.038Z,951.24
2022-09-20T01:58:21.548Z,951.23
2022-09-20T01:59:23.988Z,951.22
2022-09-20T02:00:20.508Z,951.22
2022-09-20T02:01:20.551Z,951.19
2022-09-20T02:02:20.560Z,951.25
2022-09-20T02:03:20.473Z,951.24
2022-09-20T02:04:20.594Z,951.22
2022-09-20T02:05:20.462Z,951.23
2022-09-20T02:06:20.440Z,951.24
2022-09-20T02:07:20.428Z,951.24
2022-09-20T02:08:20.432Z,951.25
2022-09-20T02:09:20.408Z,951.28
2022-09-20T02:10:20.422Z,951.29
2022-09-20T02:11:20.408Z,951.30
2022-09-20T02:12:20.372Z,951.28
2022-09-20T02:13:20.358Z,951.27
2022-09-20T02:14:20.392Z,951.25
2022-09-20T02:15:20.343Z,951.21
2022-09-20T02:16:20.351Z,951.23
2022-09-20T02:17:20.318Z,951.23
2022-09-20T02:18:20.329Z,951.24
2022-09-20T02:19:20.295Z,951.28
2022-09-20T02:20:20.294Z,951.25
2022-09-20T02:21:20.298Z,951.31
2022-09-20T02:22:20.264Z,951.30
2022-09-20T02:23:20.249Z,951.27
2022-09-20T02:24:20.237Z,951.30
2022-09-20T02:25:20.266Z,951.23
2022-09-20T02:26:20.258Z,951.31
2022-09-20T02:27:20.207Z,951.26
2022-09-20T02:28:20.191Z,951.25
2022-09-20T02:29:20.180Z,951.25
2022-09-20T02:30:20.190Z,951.26
2022-09-20T02:31:20.341Z,951.31
2022-09-20T02:32:20.162Z,951.28
2022-09-20T02:33:20.133Z,951.27
2022-09-20T02:34:20.132Z,951.31
2022-09-20T02:35:20.127Z,951.32
2022-09-20T02:36:20.103Z,951.27
2022-09-20T02:37:20.116Z,951.33
2022-09-20T02:38:20.092Z,951.31
2022-09-20T02:39:20.626Z,951.39
2022-09-20T02:40:20.162Z,951.37
2022-09-20T02:41:20.046Z,951.36
2022-09-20T02:42:20.056Z,951.36
2022-09-20T02:43:20.032Z,951.38
2022-09-20T02:44:20.027Z,951.38
2022-09-20T02:45:20.027Z,951.42
2022-09-20T02:46:20.062Z,951.47
2022-09-20T02:47:20.034Z,951.42
2022-09-20T02:48:19.969Z,951.43
2022-09-20T02:49:19.959Z,951.38
2022-09-20T02:50:19.962Z,951.42
2022-09-20T02:51:19.935Z,951.41
2022-09-20T02:52:19.926Z,951.42
2022-09-20T02:53:19.935Z,951.41
2022-09-20T02:54:19.903Z,951.39
2022-09-20T02:55:19.888Z,951.47
2022-09-20T02:56:19.894Z,951.43
2022-09-20T02:57:19.887Z,951.38
2022-09-20T02:58:19.854Z,951.43
2022-09-20T02:59:19.847Z,951.43
2022-09-20T03:00:19.863Z,951.43
2022-09-20T03:01:19.984Z,951.42
2022-09-20T03:02:19.911Z,951.42
2022-09-20T03:03:19.797Z,951.44
2022-09-20T03:04:19.790Z,951.43
2022-09-20T03:05:19.778Z,951.43
2022-09-20T03:06:19.769Z,951.44
2022-09-20T03:07:19.793Z,951.41
2022-09-20T03:08:19.742Z,951.44
2022-09-20T03:09:19.740Z,951.57
2022-09-20T03:10:19.756Z,951.45
2022-09-20T03:11:19.711Z,951.46
2022-09-20T03:12:19.717Z,951.49
2022-09-20T03:13:19.724Z,951.50
2022-09-20T03:14:19.682Z,951.47
2022-09-20T03:15:19.693Z,951.46
2022-09-20T03:16:19.743Z,951.51
2022-09-20T03:17:19.640Z,951.47
2022-09-20T03:18:19.647Z,951.49
2022-09-20T03:19:19.646Z,951.48
2022-09-20T03:20:19.630Z,951.48
2022-09-20T03:21:19.597Z,951.49
2022-09-20T03:22:19.588Z,951.54
2022-09-20T03:23:19.576Z,951.49
2022-09-20T03:24:19.589Z,951.50
2022-09-20T03:25:19.574Z,951.48
2022-09-20T03:26:19.542Z,951.47
2022-09-20T03:27:19.530Z,951.51
2022-09-20T03:28:19.519Z,951.55
2022-09-20T03:29:19.529Z,951.49
2022-09-20T03:30:19.492Z,951.45
2022-09-20T03:31:19.520Z,951.58
2022-09-20T03:32:19.474Z,951.48
2022-09-20T03:33:19.480Z,951.49
2022-09-20T03:34:19.496Z,951.52
2022-09-20T03:35:19.436Z,951.51
2022-09-20T03:36:19.444Z,951.49
2022-09-20T03:37:19.434Z,951.50
2022-09-20T03:38:19.403Z,951.55
2022-09-20T03:39:19.415Z,951.51
2022-09-20T03:40:19.456Z,951.56
2022-09-20T03:41:19.370Z,951.57
2022-09-20T03:42:19.359Z,951.58
2022-09-20T03:43:19.415Z,951.59
2022-09-20T03:44:19.338Z,951.58
2022-09-20T03:45:19.323Z,951.57
2022-09-20T03:46:19.402Z,951.53
2022-09-20T03:47:19.322Z,951.57
2022-09-20T03:48:19.290Z,951.55
2022-09-20T03:49:19.294Z,951.56
2022-09-20T03:50:19.284Z,951.58
2022-09-20T03:51:19.263Z,951.58
2022-09-20T03:52:19.274Z,951.53
2022-09-20T03:53:19.236Z,951.49
2022-09-20T03:54:19.252Z,951.59
2022-09-20T03:55:19.230Z,951.55
2022-09-20T03:56:19.201Z,951.55
2022-09-20T03:57:19.232Z,951.51
2022-09-20T03:58:19.185Z,951.53
2022-09-20T03:59:19.199Z,951.58
2022-09-20T04:00:19.169Z,951.57
2022-09-20T04:01:19.285Z,951.61
2022-09-20T04:02:19.253Z,951.57
2022-09-20T04:03:19.126Z,951.65
2022-09-20T04:04:19.172Z,951.62
2022-09-20T04:05:19.102Z,951.61
2022-09-20T04:06:19.110Z,951.61
2022-09-20T04:07:19.133Z,951.66
2022-09-20T04:08:19.073Z,951.65
2022-09-20T04:09:19.103Z,951.72
2022-09-20T04:10:19.064Z,1277.19
2022-09-20T04:11:19.055Z,1277.19
2022-09-20T04:12:19.038Z,1277.19
2022-09-20T04:13:19.100Z,1277.19
2022-09-20T04:14:19.000Z,1277.19
2022-09-20T04:15:18.990Z,1277.19
2022-09-20T04:16:19.019Z,1277.19
2022-09-20T04:17:18.963Z,1277.19
2022-09-20T04:18:18.971Z,1277.19
2022-09-20T04:19:18.959Z,1277.19
2022-09-20T04:20:18.959Z,1277.19
2022-09-20T04:21:18.922Z,1277.19
2022-09-20T04:22:18.922Z,1277.19
2022-09-20T04:23:18.908Z,1277.19
2022-09-20T04:24:21.803Z,1277.19
2022-09-20T04:25:18.893Z,1277.19
2022-09-20T04:26:18.885Z,1277.19
2022-09-20T04:27:18.851Z,1277.19
2022-09-20T04:28:18.840Z,1277.19
2022-09-20T04:29:18.832Z,1277.19
2022-09-20T04:30:18.817Z,1277.19
2022-09-20T04:31:20.832Z,1277.19
2022-09-20T04:32:18.844Z,1277.19
2022-09-20T04:33:18.784Z,1277.19
2022-09-20T04:34:18.786Z,1277.19
2022-09-20T04:35:18.764Z,1277.19
2022-09-20T04:36:29.850Z,1277.19
2022-09-20T04:37:18.769Z,1277.19
2022-09-20T04:38:26.397Z,1277.19
2022-09-20T04:39:18.733Z,1277.19
2022-09-20T04:40:18.759Z,1277.19
2022-09-20T04:41:27.395Z,1277.19
2022-09-20T04:42:18.797Z,1277.19
2022-09-20T04:43:18.742Z,1277.19
2022-09-20T04:44:18.727Z,1277.19
2022-09-20T04:45:18.809Z,1277.19
2022-09-20T04:46:18.709Z,1277.19
2022-09-20T04:47:18.646Z,1277.19
2022-09-20T04:48:18.629Z,1277.19
2022-09-20T04:49:18.614Z,1277.19
2022-09-20T04:50:18.630Z,1277.19
2022-09-20T04:51:18.590Z,1277.19
2022-09-20T04:52:18.596Z,1277.19
2022-09-20T04:53:18.569Z,1277.19
2022-09-20T04:54:27.549Z,1277.19
2022-09-20T04:55:18.557Z,1277.19
2022-09-20T04:56:18.574Z,1277.19
2022-09-20T04:57:18.543Z,1277.19
2022-09-20T04:58:18.503Z,1277.19
2022-09-20T04:59:18.503Z,1277.19
2022-09-20T05:00:18.476Z,1277.19
2022-09-20T05:01:18.529Z,1277.19
2022-09-20T05:02:18.545Z,1277.19
2022-09-20T05:03:18.446Z,1277.19
2022-09-20T05:04:18.498Z,1277.19
2022-09-20T05:05:18.427Z,1277.19
2022-09-20T05:06:18.433Z,1277.19
2022-09-20T05:07:18.404Z,1277.19
2022-09-20T05:08:18.408Z,1277.19
2022-09-20T05:09:18.381Z,1277.19
2022-09-20T05:10:18.402Z,1277.19
2022-09-20T05:11:18.377Z,1277.19
2022-09-20T05:12:18.346Z,1277.19
2022-09-20T05:13:18.356Z,1277.19
2022-09-20T05:14:18.418Z,1277.19
2022-09-20T05:15:18.315Z,1277.19
2022-09-20T05:16:18.473Z,1277.19
2022-09-20T05:17:18.302Z,1277.19
2022-09-20T05:18:18.278Z,1277.19
2022-09-20T05:19:18.267Z,1277.19
2022-09-20T05:20:18.275Z,1277.19
2022-09-20T05:21:18.283Z,1277.19
2022-09-20T05:22:18.261Z,1277.19
2022-09-20T05:23:18.225Z,1277.19
2022-09-20T05:24:18.226Z,1277.19
2022-09-20T05:25:18.199Z,1277.19
2022-09-20T05:26:18.602Z,1277.19
2022-09-20T05:27:19.042Z,1277.19
2022-09-20T05:28:18.178Z,1277.19
2022-09-20T05:29:18.155Z,1277.19
2022-09-20T05:30:18.216Z,1277.19
2022-09-20T05:31:18.173Z,1277.19
2022-09-20T05:32:18.123Z,1277.19
2022-09-20T05:33:18.143Z,1277.19
2022-09-20T05:34:18.095Z,1277.19
2022-09-20T05:35:18.084Z,1277.19
2022-09-20T05:36:18.073Z,1277.19
2022-09-20T05:37:18.083Z,1277.19
2022-09-20T05:38:18.108Z,1277.19
2022-09-20T05:39:18.042Z,1277.19
2022-09-20T05:40:18.082Z,1277.19
2022-09-20T05:41:18.047Z,1277.19
2022-09-20T05:42:18.043Z,1277.19
2022-09-20T05:43:18.009Z,1277.19
2022-09-20T05:44:18.015Z,1277.19
2022-09-20T05:45:17.971Z,1277.19
2022-09-20T05:46:17.962Z,1277.19
2022-09-20T05:47:17.950Z,1277.19
2022-09-20T05:48:17.937Z,1277.19
2022-09-20T05:49:17.947Z,1277.19
2022-09-20T05:50:17.930Z,1277.19
2022-09-20T05:51:17.905Z,1277.19
2022-09-20T05:52:17.894Z,1277.19
2022-09-20T05:53:17.920Z,1277.19
2022-09-20T05:54:17.873Z,1277.19
2022-09-20T05:55:17.861Z,1277.19
2022-09-20T05:56:17.860Z,1277.19
2022-09-20T05:57:17.837Z,1277.19
2022-09-20T05:58:17.865Z,1277.19
2022-09-20T05:59:17.836Z,1277.19
2022-09-20T06:00:17.803Z,1277.19
2022-09-20T06:01:17.883Z,1277.19
2022-09-20T06:02:17.826Z,1277.19
2022-09-20T06:03:17.768Z,1277.19
2022-09-20T06:04:17.789Z,1277.19
2022-09-20T06:05:20.383Z,1277.19
2022-09-20T06:06:17.736Z,1277.19
2022-09-20T06:07:17.728Z,1277.19
2022-09-20T06:08:17.750Z,1277.19
2022-09-20T06:09:17.719Z,1277.19
2022-09-20T06:10:17.689Z,1277.19
2022-09-20T06:11:17.680Z,1277.19
2022-09-20T06:12:17.670Z,1277.19
2022-09-20T06:13:17.686Z,1277.19
2022-09-20T06:14:17.660Z,1277.19
2022-09-20T06:15:17.634Z,1277.19
2022-09-20T06:16:17.642Z,1277.19
2022-09-20T06:17:17.614Z,1277.19
2022-09-20T06:18:17.602Z,1277.19
2022-09-20T06:19:17.612Z,1277.19
2022-09-20T06:20:17.589Z,1277.19
2022-09-20T06:21:17.567Z,1277.19
2022-09-20T06:22:17.553Z,1277.19
2022-09-20T06:23:17.564Z,1277.19
2022-09-20T06:24:17.534Z,1277.19
2022-09-20T06:25:17.536Z,1277.19
2022-09-20T06:26:17.509Z,1277.19
2022-09-20T06:27:17.499Z,1277.19
2022-09-20T06:28:17.510Z,1277.19
2022-09-20T06:29:17.478Z,1277.19
2022-09-20T06:30:17.561Z,1277.19
2022-09-20T06:31:17.469Z,1277.19
2022-09-20T06:32:17.444Z,1277.19
2022-09-20T06:33:17.455Z,1277.19
2022-09-20T06:34:17.424Z,1277.19
2022-09-20T06:35:17.429Z,1277.19
2022-09-20T06:36:17.402Z,1277.19
2022-09-20T06:37:17.403Z,1277.19
2022-09-20T06:38:17.398Z,1277.19
2022-09-20T06:39:17.368Z,1277.19
2022-09-20T06:40:17.424Z,1277.19
2022-09-20T06:41:17.342Z,1277.19
2022-09-20T06:42:17.344Z,1277.19
2022-09-20T06:43:17.373Z,1277.19
2022-09-20T06:44:17.314Z,1277.19
2022-09-20T06:45:17.319Z,1277.19
2022-09-20T06:46:17.397Z,1277.19
2022-09-20T06:47:17.275Z,1277.19
2022-09-20T06:48:17.265Z,1277.19
2022-09-20T06:49:17.271Z,1277.19
2022-09-20T06:50:17.263Z,1277.19
2022-09-20T06:51:17.231Z,1277.19
2022-09-20T06:52:17.222Z,1277.19
2022-09-20T06:53:17.209Z,1277.19
2022-09-20T06:54:17.196Z,1277.19
2022-09-20T06:55:17.217Z,1277.19
2022-09-20T06:56:17.173Z,1277.19
2022-09-20T06:57:17.182Z,1277.19
2022-09-20T06:58:17.147Z,1277.19
2022-09-20T06:59:17.138Z,1277.19
2022-09-20T07:00:17.126Z,1277.19
2022-09-20T07:01:29.041Z,1277.19
2022-09-20T07:02:18.166Z,1277.19
2022-09-20T07:03:17.094Z,1277.19
2022-09-20T07:04:17.081Z,1277.19
2022-09-20T07:05:17.073Z,1277.19
2022-09-20T07:06:17.078Z,1277.19
2022-09-20T07:07:17.072Z,1277.19
2022-09-20T07:08:17.038Z,1277.19
2022-09-20T07:09:24.750Z,1277.19
2022-09-20T07:10:17.147Z,1277.19
2022-09-20T07:11:17.174Z,1277.19
2022-09-20T07:12:17.148Z,1277.19
2022-09-20T07:13:17.069Z,1277.19
2022-09-20T07:14:17.029Z,1277.19
2022-09-20T07:15:16.964Z,1277.19
2022-09-20T07:16:17.028Z,1277.19
2022-09-20T07:17:16.935Z,1277.19
2022-09-20T07:18:16.975Z,1277.19
2022-09-20T07:19:16.930Z,1277.19
2022-09-20T07:20:21.198Z,1277.19
2022-09-20T07:21:16.912Z,1277.19
2022-09-20T07:23:08.044Z,952.80
2022-09-20T07:24:08.029Z,952.85
2022-09-20T07:25:08.051Z,952.88
2022-09-20T07:26:08.005Z,952.85
2022-09-20T07:27:08.173Z,952.81
2022-09-20T07:28:07.935Z,952.79
2022-09-20T07:29:08.058Z,952.85
2022-09-20T07:30:10.139Z,952.88
2022-09-20T07:31:07.838Z,952.87
2022-09-20T07:32:07.804Z,952.86
2022-09-20T07:33:07.799Z,952.87
2022-09-20T07:34:07.818Z,952.95
2022-09-20T07:35:07.795Z,952.95
2022-09-20T07:36:07.762Z,952.92
2022-09-20T07:37:07.770Z,952.95
2022-09-20T07:38:07.741Z,952.95
2022-09-20T07:39:07.759Z,953.02
2022-09-20T07:40:07.790Z,953.00
2022-09-20T07:41:07.706Z,953.01
2022-09-20T07:42:07.708Z,952.99
2022-09-20T07:43:07.702Z,953.02
2022-09-20T07:44:07.674Z,953.01
2022-09-20T07:45:07.705Z,953.03
2022-09-20T07:46:07.730Z,953.03
2022-09-20T07:47:07.635Z,953.08
2022-09-20T07:48:07.648Z,953.07
2022-09-20T07:49:07.618Z,953.12
2022-09-20T07:50:07.610Z,953.13
2022-09-20T07:51:08.918Z,953.14
2022-09-20T07:52:07.578Z,953.14
2022-09-20T07:53:07.583Z,953.07
2022-09-20T07:54:07.599Z,953.01
2022-09-20T07:55:07.572Z,953.03
2022-09-20T07:56:07.599Z,953.07
2022-09-20T07:57:07.575Z,953.10
2022-09-20T07:58:07.558Z,953.10
2022-09-20T07:59:07.599Z,953.10
2022-09-20T08:00:07.501Z,953.10
2022-09-20T08:01:07.528Z,953.11
2022-09-20T08:02:07.589Z,953.13
2022-09-20T08:03:07.462Z,953.13
2022-09-20T08:04:07.516Z,953.09
2022-09-20T08:05:07.473Z,953.18
2022-09-20T08:06:07.436Z,953.13
2022-09-20T08:07:07.420Z,953.13
2022-09-20T08:08:07.434Z,953.16
2022-09-20T08:09:10.965Z,953.17
2022-09-20T08:10:07.404Z,953.21
2022-09-20T08:11:07.378Z,953.17
2022-09-20T08:14:09.264Z,953.19
2022-09-20T08:15:11.153Z,953.17
2022-09-20T08:16:07.314Z,953.21
2022-09-20T08:17:07.303Z,953.15
2022-09-20T08:18:07.285Z,953.18
2022-09-20T08:19:07.316Z,953.24
2022-09-20T08:20:07.259Z,953.18
2022-09-20T08:21:07.281Z,953.21
2022-09-20T08:22:07.352Z,953.21
2022-09-20T08:23:23.100Z,953.17
2022-09-20T08:24:08.213Z,953.21
2022-09-20T08:25:07.217Z,953.21
2022-09-20T08:26:07.876Z,953.23
2022-09-20T08:27:07.199Z,953.21
2022-09-20T08:28:07.192Z,953.20
2022-09-20T08:29:07.400Z,953.16
2022-09-20T08:30:07.147Z,953.18
2022-09-20T08:31:07.130Z,953.23
2022-09-20T08:32:07.116Z,953.23
2022-09-20T08:33:07.135Z,953.24
2022-09-20T08:34:07.159Z,953.24
2022-09-20T08:35:07.111Z,953.25
2022-09-20T08:36:07.073Z,953.22
2022-09-20T08:37:07.061Z,953.24
2022-09-20T08:40:08.115Z,953.29
2022-09-20T08:41:07.028Z,953.30
2022-09-20T08:42:07.037Z,953.28
2022-09-20T08:43:06.996Z,953.29
2022-09-20T08:44:07.027Z,953.37
2022-09-20T08:45:06.975Z,953.39
2022-09-20T08:46:07.014Z,953.38
2022-09-20T08:47:06.947Z,953.43
2022-09-20T08:48:06.959Z,953.35
2022-09-20T08:49:11.034Z,953.37
2022-09-20T08:50:11.143Z,953.34
2022-09-20T08:51:06.903Z,953.36
2022-09-20T08:52:10.264Z,953.38
2022-09-20T08:53:06.927Z,953.34
2022-09-20T08:54:06.903Z,953.33
2022-09-20T08:55:07.976Z,953.33
2022-09-20T08:56:06.842Z,953.28
2022-09-20T08:57:06.844Z,953.34
2022-09-20T08:58:09.007Z,1277.19
2022-09-20T08:59:06.861Z,1277.19
2022-09-20T09:00:06.802Z,1277.19
2022-09-20T09:01:06.819Z,1277.19
2022-09-20T09:02:06.871Z,1277.19
2022-09-20T09:03:06.850Z,1277.19
2022-09-20T09:04:06.811Z,1277.19
2022-09-20T09:05:06.742Z,1277.19
2022-09-20T09:06:11.763Z,1277.19
2022-09-20T09:07:08.459Z,1277.19
2022-09-20T09:08:06.720Z,1277.19
2022-09-20T09:09:06.715Z,1277.19
2022-09-20T09:10:06.710Z,1277.19
2022-09-20T09:11:06.674Z,1277.19
2022-09-20T09:12:06.655Z,1277.19
2022-09-20T09:13:06.660Z,1277.19
2022-09-20T09:14:06.662Z,1277.19
2022-09-20T09:15:06.622Z,1277.19
2022-09-20T09:16:06.771Z,1277.19
2022-09-20T09:17:06.621Z,1277.19
2022-09-20T09:18:06.700Z,1277.19
2022-09-20T09:19:06.663Z,1277.19
2022-09-20T09:20:06.566Z,1277.19
2022-09-20T09:21:06.582Z,1277.19
2022-09-20T09:22:06.540Z,1277.19
2022-09-20T09:23:06.555Z,1277.19
2022-09-20T09:24:06.547Z,1277.19
2022-09-20T09:25:06.516Z,1277.19
2022-09-20T09:26:06.506Z,1277.19
2022-09-20T09:27:06.506Z,1277.19
2022-09-20T09:28:06.502Z,1277.19
2022-09-20T09:29:06.491Z,1277.19
2022-09-20T09:30:06.475Z,1277.19
2022-09-20T09:31:06.448Z,1277.19
2022-09-20T09:32:06.474Z,1277.19
2022-09-20T09:33:06.436Z,1277.19
2022-09-20T09:34:06.534Z,1277.19
2022-09-20T09:35:06.394Z,1277.19
2022-09-20T09:36:06.384Z,1277.19
2022-09-20T09:37:06.392Z,1277.19
2022-09-20T09:38:06.361Z,1277.19
2022-09-20T09:39:06.360Z,1277.19
2022-09-20T09:40:06.451Z,1277.19
2022-09-20T09:41:06.342Z,1277.19
2022-09-20T09:42:06.323Z,1277.19
2022-09-20T09:43:06.316Z,1277.19
2022-09-20T09:44:06.307Z,1277.19
2022-09-20T09:45:06.315Z,1277.19
2022-09-20T09:46:06.284Z,1277.19
2022-09-20T09:47:06.256Z,1277.19
2022-09-20T09:48:06.243Z,1277.19
2022-09-20T09:49:08.695Z,1277.19
2022-09-20T09:50:09.853Z,1277.19
2022-09-20T09:51:06.229Z,1277.19
2022-09-20T09:52:06.205Z,1277.19
2022-09-20T09:53:06.199Z,1277.19
2022-09-20T09:54:06.178Z,1277.19
2022-09-20T09:55:06.271Z,1277.19
2022-09-20T09:56:08.727Z,1277.19
2022-09-20T09:57:06.148Z,1277.19
2022-09-20T09:58:06.167Z,1277.19
2022-09-20T09:59:06.154Z,1277.19
2022-09-20T10:00:13.653Z,1277.19
2022-09-20T10:01:07.161Z,1277.19
2022-09-20T10:02:06.151Z,1277.19
2022-09-20T10:03:06.082Z,1277.19
2022-09-20T10:04:06.175Z,1277.19
2022-09-20T10:05:06.105Z,1277.19
2022-09-20T10:06:06.042Z,1277.19
2022-09-20T10:07:06.036Z,1277.19
2022-09-20T10:08:06.034Z,1277.19
2022-09-20T10:09:06.012Z,1277.19
2022-09-20T10:10:06.019Z,1277.19
2022-09-20T10:11:06.003Z,1277.19
2022-09-20T10:12:06.008Z,1277.19
2022-09-20T10:13:05.965Z,1277.19
2022-09-20T10:14:05.959Z,1277.19
2022-09-20T10:15:05.939Z,1277.19
2022-09-20T10:16:06.031Z,1277.19
2022-09-20T10:17:05.918Z,1277.19
2022-09-20T10:18:05.906Z,1277.19
2022-09-20T10:19:06.051Z,1277.19
2022-09-20T10:20:05.884Z,1277.19
2022-09-20T10:21:05.883Z,1277.19
2022-09-20T10:22:05.893Z,1277.19
2022-09-20T10:24:06.833Z,1277.19
2022-09-20T10:25:05.828Z,1277.19
2022-09-20T10:26:05.842Z,1277.19
2022-09-20T10:27:05.842Z,1277.19
2022-09-20T10:28:05.792Z,1277.19
2022-09-20T10:29:05.777Z,1277.19
2022-09-20T10:30:05.774Z,1277.19
2022-09-20T10:31:05.839Z,1277.19
2022-09-20T10:32:05.776Z,1277.19
2022-09-20T10:33:05.752Z,1277.19
2022-09-20T10:34:05.822Z,1277.19
2022-09-20T10:35:05.707Z,1277.19
2022-09-20T10:36:05.728Z,1277.19
2022-09-20T10:37:05.687Z,1277.19
2022-09-20T10:38:05.714Z,1277.19
2022-09-20T10:39:05.664Z,1277.19
2022-09-20T10:40:05.709Z,1277.19
2022-09-20T10:41:05.642Z,1277.19
2022-09-20T10:42:05.628Z,1277.19
2022-09-20T10:43:05.664Z,1277.19
2022-09-20T10:44:06.099Z,1277.19
2022-09-20T10:45:05.598Z,1277.19
2022-09-20T10:46:31.972Z,1277.19
2022-09-20T10:47:06.642Z,1277.19
2022-09-20T10:48:05.570Z,1277.19
2022-09-20T10:49:05.683Z,1277.19
2022-09-20T10:50:05.548Z,1277.19
2022-09-20T10:51:05.533Z,1277.19
2022-09-20T10:52:05.508Z,1277.19
2022-09-20T10:53:05.592Z,1277.19
2022-09-20T10:54:05.491Z,1277.19
2022-09-20T10:55:05.487Z,1277.19
2022-09-20T10:56:05.463Z,1277.19
2022-09-20T10:57:05.458Z,1277.19
2022-09-20T10:58:05.454Z,1277.19
2022-09-20T10:59:05.450Z,1277.19
2022-09-20T11:00:05.486Z,1277.19
2022-09-20T11:01:05.446Z,1277.19
2022-09-20T11:02:05.510Z,1277.19
2022-09-20T11:03:05.389Z,1277.19
2022-09-20T11:04:05.561Z,1277.19
2022-09-20T11:05:05.360Z,1277.19
2022-09-20T11:06:05.360Z,1277.19
2022-09-20T11:07:05.376Z,1277.19
2022-09-20T11:08:05.338Z,1277.19
2022-09-20T11:09:05.316Z,1277.19
2022-09-20T11:10:05.300Z,1277.19
2022-09-20T11:11:05.294Z,1277.19
2022-09-20T11:12:05.347Z,1277.19
2022-09-20T11:13:05.276Z,1277.19
2022-09-20T11:14:05.258Z,1277.19
2022-09-20T11:15:05.253Z,1277.19
2022-09-20T11:16:05.295Z,1277.19
2022-09-20T11:17:05.225Z,1277.19
2022-09-20T11:18:05.244Z,1277.19
2022-09-20T11:19:05.362Z,1277.19
2022-09-20T11:20:09.914Z,1277.19
2022-09-20T11:21:05.180Z,1277.19
2022-09-20T11:22:05.181Z,1277.19
2022-09-20T11:23:05.191Z,1277.19
2022-09-20T11:24:05.145Z,1277.19
2022-09-20T11:25:05.129Z,1277.19
2022-09-20T11:26:05.118Z,1277.19
2022-09-20T11:27:05.129Z,1277.19
2022-09-20T11:28:05.105Z,1277.19
2022-09-20T11:29:05.172Z,1277.19
2022-09-20T11:30:05.092Z,1277.19
2022-09-20T11:31:05.078Z,1277.19
2022-09-20T11:32:05.170Z,1277.19
2022-09-20T11:33:05.039Z,1277.19
2022-09-20T11:34:05.038Z,1277.19
2022-09-20T11:35:05.046Z,1277.19
2022-09-20T11:36:05.021Z,1277.19
2022-09-20T11:37:05.003Z,1277.19
2022-09-20T11:38:04.984Z,1277.19
2022-09-20T11:39:05.185Z,1277.19
2022-09-20T11:40:05.017Z,1277.19
2022-09-20T11:41:04.991Z,1277.19
2022-09-20T11:42:04.945Z,1277.19
2022-09-20T11:43:04.934Z,1277.19
2022-09-20T11:44:04.917Z,1277.19
2022-09-20T11:45:04.908Z,1277.19
2022-09-20T11:46:05.054Z,1277.19
2022-09-20T11:47:04.907Z,1277.19
2022-09-20T11:48:04.888Z,1277.19
2022-09-20T11:49:04.869Z,1277.19
2022-09-20T11:50:04.860Z,1277.19
2022-09-20T11:51:04.845Z,1277.19
2022-09-20T11:52:04.823Z,1277.19
2022-09-20T11:53:04.866Z,1277.19
2022-09-20T11:54:04.948Z,1277.19
2022-09-20T11:55:04.789Z,1277.19
2022-09-20T11:56:04.791Z,1277.19
2022-09-20T11:57:04.780Z,1277.19
2022-09-20T11:58:04.787Z,1277.19
2022-09-20T11:59:04.764Z,1277.19
2022-09-20T12:00:04.766Z,1277.19
2022-09-20T12:01:04.722Z,1277.19
2022-09-20T12:02:04.812Z,1277.19
2022-09-20T12:03:04.900Z,1277.19
2022-09-20T12:04:30.696Z,1277.19
2022-09-20T12:05:05.704Z,1277.19
2022-09-20T12:06:04.709Z,1277.19
2022-09-20T12:07:08.933Z,1277.19
2022-09-20T12:08:05.644Z,1277.19
2022-09-20T12:09:04.663Z,1277.19
2022-09-20T12:10:04.714Z,1277.19
2022-09-20T12:11:04.679Z,1277.19
2022-09-20T12:12:04.601Z,1277.19
2022-09-20T12:13:04.601Z,1277.19
2022-09-20T12:14:04.591Z,1277.19
2022-09-20T12:15:04.609Z,1277.19
2022-09-20T12:16:04.639Z,1277.19
2022-09-20T12:17:04.566Z,1277.19
2022-09-20T12:18:09.028Z,1277.19
2022-09-20T12:19:04.540Z,1277.19
2022-09-20T12:20:04.519Z,1277.19
2022-09-20T12:21:04.518Z,1277.19